Time;durP1;ratioP1;P1;durP2;ratioP2;P2;SDS_P1;SDS_P2;PMS_P1;PMS_P2;Temp;Humidity;BMP_temperature;BMP_pressure;BME280_temperature;BME280_humidity;BME280_pressure;Samples;Min_cycle;Max_cycle;Signal;HPM_P1;HPM_P2
2022/06/12 00:01:20;;;;;;;0.10;0.10;;;;;;;14.77;60.75;101496.16;7358279;19;20743;-62
2022/06/12 00:03:47;;;;;;;0.10;0.10;;;;;;;14.71;60.64;101499.81;7361258;19;20447;-63
2022/06/12 00:06:14;;;;;;;0.00;0.00;;;;;;;14.70;60.56;101500.72;7364550;19;20023;-64
2022/06/12 00:08:41;;;;;;;0.00;0.00;;;;;;;14.70;61.13;101502.47;7366277;19;20479;-62
2022/06/12 00:11:10;;;;;;;0.00;0.00;;;;;;;14.69;61.12;101503.38;7365626;19;20018;-63
2022/06/12 00:13:42;;;;;;;0.00;0.00;;;;;;;14.67;60.75;101499.94;7366619;19;20010;-64
2022/06/12 00:16:10;;;;;;;0.00;0.00;;;;;;;14.36;61.20;101452.56;7366573;19;20018;-63
2022/06/12 00:18:36;;;;;;;0.00;0.00;;;;;;;14.51;61.11;101494.25;7362715;19;20022;-62
2022/06/12 00:21:11;;;;;;;0.00;0.00;;;;;;;14.60;61.18;101504.50;7364623;19;20666;-64
2022/06/12 00:23:42;;;;;;;0.10;0.10;;;;;;;14.59;60.44;101508.00;7365445;19;20010;-61
2022/06/12 00:26:07;;;;;;;0.00;0.00;;;;;;;14.53;61.38;101505.56;7365038;19;20033;-63
2022/06/12 00:28:33;;;;;;;0.10;0.10;;;;;;;14.48;61.60;101494.31;7363718;19;20014;-61
2022/06/12 00:30:59;;;;;;;0.10;0.10;;;;;;;14.54;61.24;101512.53;7363712;19;20559;-63
2022/06/12 00:33:24;;;;;;;0.00;0.00;;;;;;;14.52;61.48;101512.59;7365140;19;20022;-61
2022/06/12 00:35:50;;;;;;;0.00;0.00;;;;;;;14.50;61.90;101508.28;7363569;19;20859;-63
2022/06/12 00:38:15;;;;;;;0.03;0.03;;;;;;;14.52;61.62;101511.72;7364773;19;20028;-63
2022/06/12 00:40:40;;;;;;;0.00;0.00;;;;;;;14.52;61.56;101519.59;7363139;19;20094;-62
2022/06/12 00:43:07;;;;;;;0.00;0.00;;;;;;;14.40;61.82;101491.00;7364896;19;20010;-61
2022/06/12 00:45:53;;;;;;;0.00;0.00;;;;;;;14.56;61.14;101521.25;7363580;19;20769;-61
2022/06/12 00:48:28;;;;;;;0.00;0.00;;;;;;;14.57;61.70;101522.13;7365681;19;20502;-62
2022/06/12 00:51:15;;;;;;;0.00;0.00;;;;;;;14.57;60.97;101524.75;7363884;19;20006;-62
2022/06/12 00:53:49;;;;;;;0.00;0.00;;;;;;;14.44;61.56;101509.25;7363142;19;20010;-63
2022/06/12 00:56:22;;;;;;;0.10;0.10;;;;;;;14.44;61.75;101508.38;7363011;19;20002;-64
2022/06/12 00:58:55;;;;;;;0.00;0.00;;;;;;;14.51;62.52;101525.78;7364459;19;20017;-63
2022/06/12 01:01:29;;;;;;;0.00;0.00;;;;;;;14.49;61.90;101532.81;7364294;19;20014;-61
2022/06/12 01:06:42;;;;;;;0.00;0.00;;;;;;;14.28;61.97;101507.91;7364301;19;20016;-61
2022/06/12 01:09:16;;;;;;;0.00;0.00;;;;;;;14.41;61.50;101530.38;7363821;19;20760;-63
2022/06/12 01:11:46;;;;;;;0.00;0.00;;;;;;;14.37;62.34;101530.47;7365641;19;20015;-62
2022/06/12 01:14:15;;;;;;;0.00;0.00;;;;;;;14.33;62.50;101537.56;7360955;19;20049;-63
2022/06/12 01:16:45;;;;;;;0.00;0.00;;;;;;;14.28;62.61;101537.69;7364357;19;20010;-63
2022/06/12 01:19:20;;;;;;;0.00;0.00;;;;;;;14.25;62.72;101524.63;7356930;19;20022;-62
2022/06/12 01:22:22;;;;;;;0.00;0.00;;;;;;;14.21;61.68;101536.13;7365091;19;21302;-63
2022/06/12 01:25:06;;;;;;;0.00;0.00;;;;;;;14.15;62.93;101533.63;7263491;19;2004426;-64
2022/06/12 01:27:49;;;;;;;0.00;0.00;;;;;;;14.13;62.75;101529.31;7363478;19;20026;-62
2022/06/12 01:30:20;;;;;;;0.00;0.00;;;;;;;14.09;62.93;101541.69;7362083;19;20074;-61
2022/06/12 01:32:57;;;;;;;0.00;0.00;;;;;;;14.04;62.47;101535.66;7364165;19;20466;-62
2022/06/12 01:35:31;;;;;;;;;;;;;;;14.03;60.61;101539.16;7365688;19;20481;-64
2022/06/12 01:38:19;;;;;;;0.00;0.00;;;;;;;13.95;62.18;101533.25;7363795;19;19925;-62
2022/06/12 01:40:51;;;;;;;;;;;;;;;13.97;60.22;101544.56;7364303;19;20014;-62
2022/06/12 01:43:25;;;;;;;0.00;0.00;;;;;;;13.90;62.88;101549.09;7364598;19;19914;-62
2022/06/12 01:46:03;;;;;;;0.00;0.00;;;;;;;13.83;62.46;101546.66;7364320;19;20044;-63
2022/06/12 01:48:50;;;;;;;0.00;0.00;;;;;;;13.86;61.57;101557.09;7358904;19;20644;-61
2022/06/12 01:51:29;;;;;;;0.00;0.00;;;;;;;13.83;63.08;101554.53;7364019;19;20021;-60
2022/06/12 01:54:03;;;;;;;0.00;0.00;;;;;;;13.80;62.89;101560.72;7361596;19;20011;-63
2022/06/12 01:56:32;;;;;;;0.00;0.00;;;;;;;13.77;63.38;101558.16;7363778;19;20023;-62
2022/06/12 01:59:13;;;;;;;0.00;0.00;;;;;;;13.79;62.88;101561.63;7351921;19;20530;-63
2022/06/12 02:01:49;;;;;;;0.00;0.00;;;;;;;13.70;63.44;101556.56;7364506;19;20019;-63
2022/06/12 02:04:21;;;;;;;0.00;0.00;;;;;;;13.80;63.36;101571.22;7364846;19;20106;-64
2022/06/12 02:07:11;;;;;;;0.00;0.00;;;;;;;13.80;63.17;101579.09;7362130;19;20103;-63
2022/06/12 02:09:42;;;;;;;0.00;0.00;;;;;;;13.82;63.78;101565.94;7364104;19;20592;-63
2022/06/12 02:15:20;;;;;;;0.00;0.00;;;;;;;13.77;63.06;101553.75;7260977;19;2005517;-63
2022/06/12 02:17:58;;;;;;;0.00;0.00;;;;;;;13.91;63.28;101571.84;7365160;19;20006;-62
2022/06/12 02:20:29;;;;;;;0.10;0.10;;;;;;;13.92;63.47;101572.69;7362579;19;20011;-61
2022/06/12 02:22:56;;;;;;;0.00;0.00;;;;;;;13.89;63.77;101567.50;7363647;19;20010;-62
2022/06/12 02:25:28;;;;;;;0.10;0.10;;;;;;;13.89;63.15;101572.75;7365220;19;20090;-62
2022/06/12 02:28:01;;;;;;;0.00;0.00;;;;;;;13.88;63.18;101571.88;7363955;19;20010;-62
2022/06/12 02:30:43;;;;;;;0.00;0.00;;;;;;;13.86;63.63;101578.97;7361223;19;20018;-62
2022/06/12 02:33:16;;;;;;;0.00;0.00;;;;;;;13.86;63.08;101570.22;7367029;19;20973;-64
2022/06/12 02:35:50;;;;;;;0.00;0.00;;;;;;;13.85;63.30;101565.88;7362875;19;20428;-62
2022/06/12 02:38:35;;;;;;;0.00;0.00;;;;;;;13.82;63.37;101566.78;7362597;19;20634;-63
2022/06/12 02:41:10;;;;;;;0.00;0.00;;;;;;;13.80;62.93;101567.72;7363980;19;20025;-64
2022/06/12 02:43:40;;;;;;;0.00;0.00;;;;;;;13.71;63.38;101572.28;7360056;19;20010;-63
2022/06/12 02:46:14;;;;;;;0.00;0.00;;;;;;;13.66;63.66;101566.25;7364406;19;20563;-63
2022/06/12 02:48:40;;;;;;;0.00;0.00;;;;;;;13.65;63.54;101588.16;7360333;19;20030;-63
2022/06/12 02:51:17;;;;;;;0.00;0.00;;;;;;;13.64;62.86;101585.59;7362167;19;20030;-60
2022/06/12 02:53:59;;;;;;;0.03;0.03;;;;;;;13.59;62.76;101590.06;7362963;19;20014;-63
2022/06/12 02:56:30;;;;;;;0.00;0.00;;;;;;;13.52;63.82;101591.94;7362534;19;20678;-63
2022/06/12 02:59:02;;;;;;;0.00;0.00;;;;;;;13.49;63.39;101599.88;7362078;19;20376;-62
2022/06/12 03:01:34;;;;;;;0.00;0.00;;;;;;;13.45;63.39;101595.59;7362755;19;20081;-63
2022/06/12 03:04:08;;;;;;;0.00;0.00;;;;;;;13.41;63.52;101593.91;7350527;19;20006;-62
2022/06/12 03:06:34;;;;;;;0.00;0.00;;;;;;;13.33;63.48;101608.94;7360051;19;20042;-62
2022/06/12 03:09:02;;;;;;;0.00;0.00;;;;;;;13.30;63.44;101601.13;7363014;19;20024;-62
2022/06/12 03:11:36;;;;;;;0.00;0.00;;;;;;;13.29;63.27;101604.66;7361935;19;20024;-64
2022/06/12 03:14:08;;;;;;;0.00;0.00;;;;;;;13.11;64.02;101571.75;7364253;19;20014;-63
2022/06/12 03:16:37;;;;;;;0.00;0.00;;;;;;;13.23;64.48;101603.88;7361029;19;20007;-62
2022/06/12 03:19:09;;;;;;;0.00;0.00;;;;;;;13.25;64.45;101601.22;7355735;19;20839;-60
2022/06/12 03:21:52;;;;;;;0.00;0.00;;;;;;;13.26;64.14;101602.94;7359673;19;20011;-62
2022/06/12 03:24:30;;;;;;;0.08;0.08;;;;;;;13.27;64.17;101598.56;7362784;19;20090;-61
2022/06/12 03:27:16;;;;;;;0.00;0.00;;;;;;;13.29;64.54;101607.28;7358503;19;20020;-62
2022/06/12 03:29:54;;;;;;;0.10;0.10;;;;;;;13.34;63.72;101597.56;7361354;19;20011;-63
2022/06/12 03:32:29;;;;;;;0.10;0.10;;;;;;;13.34;64.33;101600.19;7359867;19;20013;-61
2022/06/12 03:35:32;;;;;;;0.00;0.00;;;;;;;13.34;63.31;101601.06;7362693;19;20014;-63
2022/06/12 03:38:01;;;;;;;0.00;0.00;;;;;;;13.30;64.16;101595.88;7260430;19;2004179;-62
2022/06/12 03:40:47;;;;;;;0.00;0.00;;;;;;;13.29;63.56;101607.28;7358485;19;20544;-62
2022/06/12 03:43:35;;;;;;;0.00;0.00;;;;;;;13.27;62.94;101594.19;7262574;19;2004401;-61
2022/06/12 03:46:12;;;;;;;0.00;0.00;;;;;;;13.20;63.77;101598.66;7363759;19;20011;-61
2022/06/12 03:48:54;;;;;;;0.00;0.00;;;;;;;13.17;63.11;101598.69;7361184;19;20407;-59
2022/06/12 03:51:38;;;;;;;0.00;0.00;;;;;;;13.13;64.49;101591.81;7364116;19;20014;-63
2022/06/12 03:54:20;;;;;;;0.00;0.00;;;;;;;13.10;63.70;101597.09;7365402;19;21021;-62
2022/06/12 03:59:50;;;;;;;0.00;0.00;;;;;;;13.02;64.30;101598.13;7257441;19;2004469;-62
2022/06/12 04:02:21;;;;;;;0.00;0.00;;;;;;;12.97;64.39;101601.69;7359007;19;20026;-62
2022/06/12 04:04:48;;;;;;;0.08;0.08;;;;;;;12.95;64.29;101605.25;7361479;19;20064;-63
2022/06/12 04:07:17;;;;;;;0.00;0.00;;;;;;;12.89;64.90;101611.47;7362852;19;20002;-63
2022/06/12 04:09:46;;;;;;;0.00;0.00;;;;;;;12.88;64.58;101611.50;7358810;19;20014;-62
2022/06/12 04:12:28;;;;;;;0.00;0.00;;;;;;;12.88;63.84;101611.50;7361907;19;20011;-62
2022/06/12 04:15:06;;;;;;;0.10;0.10;;;;;;;12.85;65.26;101616.78;7361240;19;20024;-62
2022/06/12 04:17:31;;;;;;;;;;;;;;;12.85;62.55;101611.56;7362222;19;20070;-64
2022/06/12 04:20:03;;;;;;;0.00;0.00;;;;;;;12.81;64.87;101615.09;7362609;19;19923;-62
2022/06/12 04:22:47;;;;;;;0.00;0.00;;;;;;;12.82;63.86;101611.59;7358546;19;20041;-63
2022/06/12 04:25:22;;;;;;;0.00;0.00;;;;;;;12.78;64.78;101610.81;7362857;19;20038;-63
2022/06/12 04:27:47;;;;;;;0.00;0.00;;;;;;;12.73;65.13;101612.63;7362867;19;20014;-63
2022/06/12 04:30:33;;;;;;;0.10;0.10;;;;;;;12.67;64.89;101610.97;7363400;19;20027;-63
2022/06/12 04:33:33;;;;;;;0.00;0.00;;;;;;;12.73;64.40;101623.13;7363207;19;20193;-64
2022/06/12 04:36:01;;;;;;;0.00;0.00;;;;;;;12.70;65.61;101628.41;7261752;19;2004315;-63
2022/06/12 04:38:28;;;;;;;0.10;0.10;;;;;;;12.69;65.38;101632.78;7362463;19;20455;-62
2022/06/12 04:40:54;;;;;;;0.00;0.00;;;;;;;12.68;65.81;101630.19;7362618;19;20010;-63
2022/06/12 04:43:20;;;;;;;0.00;0.00;;;;;;;12.67;65.75;101634.56;7358544;19;20054;-60
2022/06/12 04:45:47;;;;;;;0.00;0.00;;;;;;;12.68;65.79;101625.81;7361431;19;20007;-62
2022/06/12 04:48:18;;;;;;;0.00;0.00;;;;;;;12.69;66.00;101632.78;7361717;19;20514;-59
2022/06/12 04:50:43;;;;;;;0.00;0.00;;;;;;;12.69;65.74;101632.78;7365855;19;20761;-62
2022/06/12 04:53:09;;;;;;;0.00;0.00;;;;;;;12.69;65.85;101632.78;7368981;19;20014;-61
2022/06/12 04:55:34;;;;;;;0.00;0.00;;;;;;;12.69;65.78;101638.03;7365276;19;20018;-61
2022/06/12 04:58:00;;;;;;;0.10;0.10;;;;;;;12.71;66.36;101641.47;7368734;19;20107;-63
2022/06/12 05:00:27;;;;;;;0.00;0.00;;;;;;;12.71;65.90;101636.22;7368600;19;20030;-61
2022/06/12 05:02:52;;;;;;;0.10;0.10;;;;;;;12.71;65.67;101641.47;7368130;19;20347;-60
2022/06/12 05:05:18;;;;;;;0.00;0.00;;;;;;;12.73;65.38;101639.72;7368950;19;20474;-62
2022/06/12 05:07:43;;;;;;;0.00;0.00;;;;;;;12.59;65.74;101620.72;7367801;19;20018;-63
2022/06/12 08:14:20;;;;;;;0.00;0.00;;;;;;;14.74;64.50;101702.16;7380933;19;20707;-60
2022/06/12 08:16:46;;;;;;;0.00;0.00;;;;;;;15.13;63.45;101699.47;7394005;19;20044;-60
2022/06/12 08:21:59;;;;;;;0.00;0.00;;;;;;;15.81;61.49;101716.97;7373839;19;20109;-60
2022/06/12 08:24:25;;;;;;;0.00;0.00;;;;;;;15.98;60.81;101704.19;7382672;19;20949;-59
2022/06/12 08:26:50;;;;;;;0.00;0.00;;;;;;;16.13;60.49;101716.06;7389740;19;20062;-60
2022/06/12 08:29:16;;;;;;;0.00;0.00;;;;;;;16.26;60.87;101706.84;7396873;19;20022;-60
2022/06/12 08:31:48;;;;;;;0.00;0.00;;;;;;;16.46;60.70;101721.19;7400248;19;20002;-61
2022/06/12 08:34:27;;;;;;;0.00;0.00;;;;;;;16.62;60.63;101709.25;7399545;19;20033;-59
2022/06/12 08:36:58;;;;;;;0.00;0.00;;;;;;;16.71;58.94;101709.00;7398101;19;20031;-61
2022/06/12 08:39:24;;;;;;;0.00;0.00;;;;;;;16.79;58.00;101701.72;7401543;19;20006;-57
2022/06/12 08:42:13;;;;;;;0.00;0.00;;;;;;;16.95;58.60;101701.22;7399137;19;20021;-59
2022/06/12 08:45:01;;;;;;;0.08;0.08;;;;;;;17.01;58.15;101706.28;7398464;19;20006;-60
2022/06/12 08:47:45;;;;;;;0.00;0.00;;;;;;;17.07;58.65;101711.34;7395397;19;20006;-61
2022/06/12 08:50:55;;;;;;;0.00;0.00;;;;;;;17.11;57.73;101705.06;7391829;19;20010;-60
2022/06/12 08:53:24;;;;;;;0.00;0.00;;;;;;;17.16;56.62;101711.03;7282396;19;2004270;-60
2022/06/12 08:55:59;;;;;;;0.00;0.00;;;;;;;17.23;57.09;101701.13;7385589;19;20424;-60
2022/06/12 08:58:31;;;;;;;0.10;0.10;;;;;;;17.23;56.16;101699.34;7387940;19;20073;-61
2022/06/12 09:00:58;;;;;;;0.00;0.00;;;;;;;17.23;56.17;101704.63;7385076;19;20101;-60
2022/06/12 09:03:25;;;;;;;;;;;;;;;17.32;57.69;101695.53;7388883;19;20017;-60
2022/06/12 09:06:14;;;;;;;0.00;0.00;;;;;;;17.36;57.49;101698.03;7375250;19;19919;-59
2022/06/12 09:08:46;;;;;;;0.00;0.00;;;;;;;17.42;56.37;101704.00;7383168;19;20025;-58
2022/06/12 09:11:11;;;;;;;0.00;0.00;;;;;;;17.49;55.23;101694.97;7375045;19;20016;-60
2022/06/12 09:13:37;;;;;;;0.00;0.00;;;;;;;17.57;55.16;101695.53;7372334;19;20766;-60
2022/06/12 09:16:05;;;;;;;0.05;0.05;;;;;;;17.65;55.02;101698.78;7351675;19;20030;-60
2022/06/12 09:18:33;;;;;;;0.00;0.00;;;;;;;17.77;54.50;101690.41;7349252;19;20552;-59
2022/06/12 09:21:22;;;;;;;0.00;0.00;;;;;;;17.92;56.08;101685.50;7351455;19;20007;-60
2022/06/12 09:24:05;;;;;;;0.00;0.00;;;;;;;17.93;54.58;101679.28;7244839;19;2004429;-57
2022/06/12 09:27:08;;;;;;;0.08;0.08;;;;;;;18.16;54.78;101700.41;7351450;19;20011;-60
2022/06/12 09:30:12;;;;;;;0.00;0.00;;;;;;;18.33;54.68;101708.53;7257040;19;2004481;-61
2022/06/12 09:33:09;;;;;;;0.00;0.00;;;;;;;18.39;53.91;101673.91;7255104;19;2004388;-62
2022/06/12 09:35:44;;;;;;;0.10;0.10;;;;;;;18.40;53.09;101688.03;7249052;19;2004304;-61
2022/06/12 09:38:27;;;;;;;0.03;0.03;;;;;;;18.46;51.82;101679.00;7356368;19;20383;-60
2022/06/12 09:41:01;;;;;;;0.10;0.10;;;;;;;18.50;52.42;101692.03;7357842;19;20026;-60
2022/06/12 09:43:51;;;;;;;0.10;0.10;;;;;;;18.55;51.99;101682.13;7363323;19;20042;-61
2022/06/12 09:46:55;;;;;;;0.00;0.00;;;;;;;18.72;52.37;101688.56;7338972;19;20010;-62
2022/06/12 09:49:38;;;;;;;0.10;0.10;;;;;;;18.93;50.63;101688.50;7249932;19;2004035;-60
2022/06/12 09:52:21;;;;;;;0.10;0.10;;;;;;;19.22;51.59;101699.66;7364544;19;20428;-61
2022/06/12 09:55:15;;;;;;;0.00;0.00;;;;;;;19.58;52.25;101691.91;7367133;19;20033;-61
2022/06/12 09:57:54;;;;;;;0.00;0.00;;;;;;;19.68;49.09;101690.59;7266878;19;2004519;-63
2022/06/12 10:00:27;;;;;;;0.00;0.00;;;;;;;19.79;49.35;101682.16;7369475;19;20015;-62
2022/06/12 10:03:19;;;;;;;0.00;0.00;;;;;;;19.83;50.03;101681.09;7366330;19;20007;-62
2022/06/12 10:06:02;;;;;;;0.10;0.10;;;;;;;19.75;49.53;101696.47;7265909;19;2004506;-63
2022/06/12 10:08:51;;;;;;;0.00;0.00;;;;;;;19.62;49.57;101698.81;7359374;19;20014;-62
2022/06/12 10:11:25;;;;;;;0.00;0.00;;;;;;;19.44;49.29;101695.16;7359049;19;20015;-61
2022/06/12 10:14:06;;;;;;;0.10;0.10;;;;;;;19.26;49.73;101690.66;7359448;19;20017;-63
2022/06/12 10:16:38;;;;;;;0.00;0.00;;;;;;;19.07;49.57;101690.59;7360973;19;20488;-62
2022/06/12 10:19:13;;;;;;;0.00;0.00;;;;;;;18.95;49.76;101690.22;7364358;19;20106;-63
2022/06/12 10:21:43;;;;;;;0.00;0.00;;;;;;;18.87;49.57;101683.47;7360795;19;20011;-63
2022/06/12 10:24:11;;;;;;;0.00;0.00;;;;;;;18.78;50.12;101673.28;7358883;19;20030;-63
2022/06/12 10:26:36;;;;;;;0.10;0.10;;;;;;;18.92;49.80;101686.78;7354848;19;20053;-62
2022/06/12 10:29:14;;;;;;;0.05;0.05;;;;;;;19.12;51.60;101678.00;7356888;19;20023;-61
2022/06/12 10:32:02;;;;;;;0.00;0.00;;;;;;;19.35;50.98;101682.31;7343024;19;20019;-63
2022/06/12 10:34:32;;;;;;;0.00;0.00;;;;;;;19.47;49.26;101694.16;7329175;19;20019;-61
2022/06/12 10:37:27;;;;;;;0.10;0.10;;;;;;;19.53;50.10;101677.13;7356978;19;20007;-63
2022/06/12 10:40:00;;;;;;;0.00;0.00;;;;;;;19.47;48.64;101693.31;7260982;19;2004431;-63
2022/06/12 10:42:53;;;;;;;0.00;0.00;;;;;;;19.26;48.81;101685.38;7359515;19;20010;-62
2022/06/12 10:45:24;;;;;;;0.00;0.00;;;;;;;19.21;48.48;101692.66;7259829;19;2004254;-63
2022/06/12 10:47:51;;;;;;;0.00;0.00;;;;;;;19.09;48.33;101701.97;7359384;19;20015;-62
2022/06/12 10:50:17;;;;;;;;;;;;;;;19.04;49.76;101695.16;7361177;19;20106;-63
2022/06/12 10:52:54;;;;;;;0.00;0.00;;;;;;;18.91;49.01;101695.66;7362690;19;19967;-63
2022/06/12 10:55:24;;;;;;;;;;;;;;;18.88;50.41;101701.06;7360980;19;20002;-61
2022/06/12 10:58:23;;;;;;;0.00;0.00;;;;;;;18.84;49.87;101710.06;7358984;19;20438;-62
2022/06/12 11:00:54;;;;;;;0.00;0.00;;;;;;;18.90;50.48;101704.50;7258555;19;2004747;-63
2022/06/12 11:03:52;;;;;;;0.00;0.00;;;;;;;19.09;51.61;101695.81;7361702;19;20021;-62
2022/06/12 11:07:03;;;;;;;0.00;0.00;;;;;;;19.42;51.82;101685.56;7252120;19;2004236;-64
2022/06/12 11:09:43;;;;;;;0.00;0.00;;;;;;;19.75;50.94;101677.06;7255167;19;2004480;-64
2022/06/12 11:12:14;;;;;;;0.00;0.00;;;;;;;19.96;49.49;101670.75;7348268;19;20757;-63
2022/06/12 11:15:17;;;;;;;0.00;0.00;;;;;;;20.43;50.21;101676.47;7359438;19;20019;-63
2022/06/12 11:18:01;;;;;;;0.00;0.00;;;;;;;20.84;48.44;101670.97;7257841;19;2004455;-63
2022/06/12 11:20:35;;;;;;;0.10;0.10;;;;;;;21.07;47.51;101676.91;7360367;19;20018;-63
2022/06/12 11:23:28;;;;;;;0.00;0.00;;;;;;;21.18;48.01;101679.84;7359948;19;20943;-63
2022/06/12 11:25:54;;;;;;;0.00;0.00;;;;;;;21.10;46.44;101676.75;7256979;19;2004432;-63
2022/06/12 11:28:25;;;;;;;0.10;0.10;;;;;;;21.14;46.59;101683.63;7359061;19;20027;-64
2022/06/12 11:31:19;;;;;;;0.00;0.00;;;;;;;21.10;47.64;101674.09;7363755;19;20017;-64
2022/06/12 11:34:22;;;;;;;0.00;0.00;;;;;;;21.05;47.22;101689.41;7265123;19;2004294;-63
2022/06/12 11:36:59;;;;;;;0.10;0.10;;;;;;;20.98;43.31;101673.78;7263680;19;2004316;-62
2022/06/12 11:39:43;;;;;;;0.10;0.10;;;;;;;21.04;43.83;101682.38;7365221;19;20525;-62
2022/06/12 11:42:11;;;;;;;0.00;0.00;;;;;;;21.04;45.11;101691.19;7364387;19;20018;-63
2022/06/12 11:44:45;;;;;;;0.00;0.00;;;;;;;21.11;43.95;101695.25;7364209;19;20010;-63
2022/06/12 11:47:44;;;;;;;0.10;0.10;;;;;;;21.17;45.51;101683.44;7365237;19;20037;-63
2022/06/12 11:50:51;;;;;;;0.03;0.03;;;;;;;21.34;44.51;101686.16;7257551;19;2004478;-63
2022/06/12 11:53:44;;;;;;;0.00;0.00;;;;;;;21.50;45.69;101708.31;7253595;19;2004170;-63
2022/06/12 11:56:18;;;;;;;0.00;0.00;;;;;;;21.65;43.82;101705.78;7256462;19;2004298;-62
2022/06/12 11:59:17;;;;;;;0.00;0.00;;;;;;;21.73;44.27;101693.78;7360240;19;20010;-62
2022/06/12 12:01:58;;;;;;;0.00;0.00;;;;;;;21.81;43.80;101690.72;7247116;19;2005231;-64
2022/06/12 12:04:34;;;;;;;0.00;0.00;;;;;;;21.85;42.91;101697.59;7353891;19;20011;-63
2022/06/12 12:07:08;;;;;;;0.10;0.10;;;;;;;21.88;43.48;101702.75;7357935;19;20003;-64
2022/06/12 12:09:43;;;;;;;0.10;0.10;;;;;;;21.90;43.25;101689.38;7356567;19;20018;-63
2022/06/12 12:12:39;;;;;;;0.10;0.10;;;;;;;22.01;44.81;101701.16;7354637;19;20006;-63
2022/06/12 12:15:11;;;;;;;;;;;;;;;22.16;44.53;101686.19;7255218;19;2004209;-61
2022/06/12 12:17:44;;;;;;;0.10;0.10;;;;;;;22.20;42.62;101693.06;7358008;19;19922;-64
2022/06/12 12:20:22;;;;;;;0.10;0.10;;;;;;;22.28;42.34;101681.97;7357933;19;20014;-63
2022/06/12 12:22:59;;;;;;;0.00;0.00;;;;;;;22.39;42.48;101682.22;7354391;19;20362;-63
2022/06/12 12:25:34;;;;;;;0.00;0.00;;;;;;;22.52;41.42;101677.06;7360987;19;20023;-62
2022/06/12 12:28:05;;;;;;;0.00;0.00;;;;;;;22.75;42.04;101678.38;7358285;19;20042;-62
2022/06/12 12:30:34;;;;;;;0.00;0.00;;;;;;;22.99;41.08;101676.97;7358652;19;20041;-63
2022/06/12 12:33:03;;;;;;;0.00;0.00;;;;;;;23.16;40.10;101672.44;7356246;19;20007;-62
2022/06/12 12:41:12;;;;;;;0.10;0.10;;;;;;;23.74;39.08;101671.59;7354025;19;20091;-62
2022/06/12 12:43:59;;;;;;;0.00;0.00;;;;;;;23.96;41.52;101679.09;7357423;19;20569;-62
2022/06/12 12:46:40;;;;;;;0.10;0.10;;;;;;;24.07;38.90;101666.75;7358333;19;20014;-63
2022/06/12 12:49:06;;;;;;;0.10;0.10;;;;;;;24.16;38.05;101678.66;7355689;19;20082;-63
2022/06/12 12:51:36;;;;;;;0.10;0.10;;;;;;;24.20;38.07;101684.66;7357178;19;20094;-62
2022/06/12 12:54:20;;;;;;;0.00;0.00;;;;;;;24.10;38.98;101686.22;7363795;19;20650;-64
2022/06/12 12:57:02;;;;;;;0.10;0.10;;;;;;;23.86;38.78;101689.47;7363025;19;20014;-64
2022/06/12 12:59:46;;;;;;;0.00;0.00;;;;;;;23.52;37.87;101686.22;7361503;19;20006;-63
2022/06/12 13:02:21;;;;;;;0.00;0.00;;;;;;;23.32;38.22;101699.91;7364369;19;20015;-63
2022/06/12 13:04:47;;;;;;;0.05;0.05;;;;;;;22.99;38.44;101703.63;7362012;19;20842;-63
2022/06/12 13:07:36;;;;;;;0.00;0.00;;;;;;;22.81;39.88;101704.69;7361444;19;20034;-63
2022/06/12 13:10:27;;;;;;;0.00;0.00;;;;;;;22.59;40.02;101709.50;7256376;19;2004354;-63
2022/06/12 13:13:17;;;;;;;0.10;0.10;;;;;;;22.40;40.64;101715.00;7256626;19;2004354;-63
2022/06/12 13:16:05;;;;;;;0.10;0.10;;;;;;;22.25;40.01;101722.03;7256374;19;2004420;-62
2022/06/12 13:19:15;;;;;;;0.00;0.00;;;;;;;22.14;40.92;101711.13;7252522;19;2004087;-61
2022/06/12 13:22:02;;;;;;;0.00;0.00;;;;;;;22.03;40.40;101711.69;7253640;19;2004262;-63
2022/06/12 13:25:20;;;;;;;0.00;0.00;;;;;;;21.96;41.50;101716.50;7365586;19;20015;-62
2022/06/12 13:27:55;;;;;;;0.00;0.00;;;;;;;21.89;40.79;101708.91;7262734;19;2004622;-61
2022/06/12 13:30:25;;;;;;;0.03;0.03;;;;;;;21.81;40.69;101712.00;7367073;19;20022;-62
2022/06/12 13:32:51;;;;;;;0.00;0.00;;;;;;;21.72;41.15;101709.84;7356103;19;20033;-63
2022/06/12 13:35:29;;;;;;;0.00;0.00;;;;;;;21.77;41.31;101705.13;7360352;19;20010;-62
2022/06/12 13:38:00;;;;;;;0.00;0.00;;;;;;;21.79;41.21;101713.88;7361185;19;20013;-63
2022/06/12 13:40:43;;;;;;;0.00;0.00;;;;;;;21.89;41.47;101699.13;7363363;19;20069;-63
2022/06/12 13:43:10;;;;;;;0.10;0.10;;;;;;;21.93;40.55;101708.66;7356562;19;20014;-64
2022/06/12 13:45:36;;;;;;;0.10;0.10;;;;;;;21.98;40.40;101714.59;7356933;19;20007;-63
2022/06/12 13:48:18;;;;;;;0.00;0.00;;;;;;;22.04;40.98;101702.75;7363272;19;20018;-62
2022/06/12 13:50:52;;;;;;;0.03;0.03;;;;;;;22.02;41.36;101710.84;7362456;19;20484;-64
2022/06/12 13:53:18;;;;;;;0.00;0.00;;;;;;;21.98;41.86;101719.91;7360827;19;20014;-63
2022/06/12 13:55:58;;;;;;;0.00;0.00;;;;;;;22.06;41.68;101713.34;7361223;19;20023;-64
2022/06/12 13:58:34;;;;;;;0.10;0.10;;;;;;;21.96;40.77;101711.19;7361986;19;20006;-64
2022/06/12 14:01:17;;;;;;;0.00;0.00;;;;;;;21.90;41.70;101692.03;7362982;19;20013;-62
2022/06/12 14:03:47;;;;;;;0.10;0.10;;;;;;;21.91;40.73;101707.91;7345594;19;20002;-64
2022/06/12 14:06:15;;;;;;;0.00;0.00;;;;;;;21.86;40.95;101709.97;7358917;19;20026;-64
2022/06/12 14:08:43;;;;;;;0.10;0.10;;;;;;;21.87;41.66;101717.00;7354683;19;20041;-62
2022/06/12 14:11:19;;;;;;;0.10;0.10;;;;;;;21.94;42.22;101718.34;7357488;19;20010;-64
2022/06/12 14:13:45;;;;;;;0.10;0.10;;;;;;;22.02;41.54;101710.84;7360776;19;20074;-64
2022/06/12 14:16:17;;;;;;;0.05;0.05;;;;;;;22.22;41.88;101714.25;7356477;19;20047;-63
2022/06/12 14:18:57;;;;;;;0.00;0.00;;;;;;;22.48;42.66;101703.00;7361315;19;20011;-64
2022/06/12 14:21:43;;;;;;;0.00;0.00;;;;;;;22.73;42.68;101706.91;7354153;19;20011;-64
2022/06/12 14:24:14;;;;;;;0.00;0.00;;;;;;;22.86;40.71;101696.41;7362959;19;20066;-62
2022/06/12 14:26:45;;;;;;;0.10;0.10;;;;;;;22.91;40.68;101695.22;7354102;19;20018;-64
2022/06/12 14:29:32;;;;;;;0.00;0.00;;;;;;;23.02;41.07;101691.94;7361989;19;20018;-62
2022/06/12 14:32:21;;;;;;;0.10;0.10;;;;;;;22.98;40.81;101699.25;7357726;19;20010;-64
2022/06/12 14:34:59;;;;;;;0.10;0.10;;;;;;;22.84;40.23;101693.81;7354865;19;20006;-63
2022/06/12 14:37:41;;;;;;;0.00;0.00;;;;;;;22.61;40.51;101696.94;7361110;19;20078;-63
2022/06/12 14:40:29;;;;;;;0.10;0.10;;;;;;;22.36;40.48;101705.50;7355125;19;20900;-64
2022/06/12 14:43:07;;;;;;;0.05;0.05;;;;;;;22.06;41.43;101705.38;7362906;19;20473;-64
2022/06/12 14:45:33;;;;;;;0.00;0.00;;;;;;;21.80;42.06;101699.66;7365582;19;20018;-61
2022/06/12 14:47:59;;;;;;;0.00;0.00;;;;;;;21.63;42.83;101715.63;7368691;19;20021;-64
2022/06/12 14:50:25;;;;;;;0.10;0.10;;;;;;;21.48;43.10;101704.84;7365447;19;20011;-62
2022/06/12 14:52:51;;;;;;;0.00;0.00;;;;;;;21.36;43.43;101700.19;7367093;19;20010;-61
2022/06/12 14:55:16;;;;;;;0.10;0.10;;;;;;;21.33;43.39;101703.00;7359453;19;20011;-63
2022/06/12 14:57:42;;;;;;;0.03;0.03;;;;;;;21.26;43.15;101709.56;7358358;19;20050;-63
2022/06/12 15:00:19;;;;;;;0.00;0.00;;;;;;;21.22;43.39;101700.88;7358380;19;20041;-62
2022/06/12 15:02:44;;;;;;;0.00;0.00;;;;;;;21.05;45.49;101684.09;7358165;19;20103;-62
2022/06/12 15:05:20;;;;;;;0.00;0.00;;;;;;;21.05;43.66;101686.75;7359768;19;20513;-62
2022/06/12 15:07:46;;;;;;;0.10;0.10;;;;;;;21.09;44.21;101696.28;7360639;19;20014;-63
2022/06/12 15:10:11;;;;;;;0.10;0.10;;;;;;;21.14;44.83;101696.91;7357424;19;20021;-63
2022/06/12 15:12:39;;;;;;;0.05;0.05;;;;;;;21.18;44.74;101706.41;7353618;19;20011;-61
2022/06/12 15:15:05;;;;;;;0.10;0.10;;;;;;;21.29;44.35;101701.44;7360872;19;20026;-60
2022/06/12 15:17:30;;;;;;;0.10;0.10;;;;;;;21.49;43.90;101701.28;7359158;19;20021;-64
2022/06/12 15:19:55;;;;;;;0.10;0.10;;;;;;;21.75;43.71;101699.91;7356290;19;20030;-62
2022/06/12 15:22:21;;;;;;;0.00;0.00;;;;;;;22.12;42.15;101699.72;7359279;19;20085;-64
2022/06/12 15:24:48;;;;;;;0.10;0.10;;;;;;;22.36;41.89;101677.06;7354554;19;20006;-64
2022/06/12 15:29:59;;;;;;;0.10;0.10;;;;;;;23.02;41.72;101684.78;7355005;19;20018;-64